Overview Statistics Trail Chart Weather Telemetry Raw packets
 

This is the latest recevied weather packets stored in our database for station/object K1RFS. If no packets are shown the sender has not sent any weather packets the latest 10 day(s).

<< 96 97 98 99 100 101 102 >>
Time Temp. Humidity Pressure Rain* Wind** Luminosity Snow
1787975540 21.11° C 60% 1004.8 hPa 0 mm - 0 W/m² -
1787975238 21.11° C 60% 1004.7 hPa 0 mm - 0 W/m² -
1787974938 21.11° C 60% 1005 hPa 0 mm - 0 W/m² -
1787974637 21.11° C 61% 1005 hPa 0 mm - 0 W/m² -
1787974332 21.67° C 61% 1005.2 hPa 0 mm - 0 W/m² -
1787974030 21.67° C 61% 1005.2 hPa 0 mm - 0 W/m² -
1787973726 21.67° C 61% 1004.9 hPa 0 mm - 0 W/m² -
1787973421 21.67° C 61% 1005 hPa 0 mm - 0 W/m² -
1787973115 22.22° C 61% 1004.7 hPa 0 mm - 0 W/m² -
1787972810 22.22° C 60% 1004.5 hPa 0 mm - 0 W/m² -
1787972510 22.22° C 63% 1004.7 hPa 0 mm - 0 W/m² -
1787972208 22.22° C 64% 1004.9 hPa 0 mm - 0 W/m² -
1787971903 22.78° C 60% 1004.6 hPa 0 mm - 0 W/m² -
1787971599 22.78° C 58% 1004.5 hPa 0 mm - 0 W/m² -
1787971295 23.33° C 56% 1004.4 hPa 0 mm - 0 W/m² -
1787970990 23.33° C 55% 1004.4 hPa 0 mm - 0 W/m² -
1787970690 24.44° C 51% 1004.1 hPa 0 mm - 0 W/m² -
1787970389 23.89° C 47% 1003.8 hPa 0 mm - 0 W/m² -
1787970088 24.44° C 46% 1003.7 hPa 0 mm - 0 W/m² -
1787969787 24.44° C 45% 1003.1 hPa 0 mm - 0 W/m² -
1787969486 25° C 43% 1003.1 hPa 0 mm - 1 W/m² -
1787969181 25° C 42% 1002.9 hPa 0 mm - 2 W/m² -
1787968876 25° C 42% 1002.6 hPa 0 mm - 4 W/m² -
1787968575 25.56° C 41% 1002.4 hPa 0 mm - 6 W/m² -
1787968271 25.56° C 41% 1002.3 hPa 0 mm - 8 W/m² -

* Rain latest hour (hover to see other rain measurements)
** Current wind speed in m/s (hover to see current wind gust speed)